sensor_id;sensor_type;location;lat;lon;timestamp;P1;durP1;ratioP1;P2;durP2;ratioP2
17259;SDS011;8746;49.230;9.220;2023-05-25T00:00:12;6.60;;;2.53;;
17259;SDS011;8746;49.230;9.220;2023-05-25T00:02:39;8.07;;;3.17;;
17259;SDS011;8746;49.230;9.220;2023-05-25T00:05:07;5.77;;;2.70;;
17259;SDS011;8746;49.230;9.220;2023-05-25T00:07:33;4.83;;;2.93;;
17259;SDS011;8746;49.230;9.220;2023-05-25T00:09:58;5.90;;;2.60;;
17259;SDS011;8746;49.230;9.220;2023-05-25T00:12:23;6.37;;;2.87;;
17259;SDS011;8746;49.230;9.220;2023-05-25T00:14:49;7.67;;;2.67;;
17259;SDS011;8746;49.230;9.220;2023-05-25T00:17:14;4.97;;;2.30;;
17259;SDS011;8746;49.230;9.220;2023-05-25T00:19:42;7.17;;;2.80;;
17259;SDS011;8746;49.230;9.220;2023-05-25T00:22:09;5.67;;;2.90;;
17259;SDS011;8746;49.230;9.220;2023-05-25T00:24:35;5.80;;;2.87;;
17259;SDS011;8746;49.230;9.220;2023-05-25T00:27:01;8.23;;;2.90;;
17259;SDS011;8746;49.230;9.220;2023-05-25T00:29:27;4.97;;;2.57;;
17259;SDS011;8746;49.230;9.220;2023-05-25T00:31:52;7.07;;;2.60;;
17259;SDS011;8746;49.230;9.220;2023-05-25T00:34:18;6.27;;;3.03;;
17259;SDS011;8746;49.230;9.220;2023-05-25T00:36:43;7.93;;;2.90;;
17259;SDS011;8746;49.230;9.220;2023-05-25T00:39:12;7.93;;;3.17;;
17259;SDS011;8746;49.230;9.220;2023-05-25T00:41:39;6.80;;;2.90;;
17259;SDS011;8746;49.230;9.220;2023-05-25T00:44:08;5.53;;;2.80;;
17259;SDS011;8746;49.230;9.220;2023-05-25T00:46:33;7.40;;;3.30;;
17259;SDS011;8746;49.230;9.220;2023-05-25T00:48:59;5.03;;;2.77;;
17259;SDS011;8746;49.230;9.220;2023-05-25T00:51:25;7.20;;;3.07;;
17259;SDS011;8746;49.230;9.220;2023-05-25T00:53:53;6.40;;;2.83;;
17259;SDS011;8746;49.230;9.220;2023-05-25T00:56:20;5.60;;;2.70;;
17259;SDS011;8746;49.230;9.220;2023-05-25T00:58:53;8.60;;;3.27;;
17259;SDS011;8746;49.230;9.220;2023-05-25T01:01:22;5.67;;;2.63;;
17259;SDS011;8746;49.230;9.220;2023-05-25T01:03:50;8.83;;;2.93;;
17259;SDS011;8746;49.230;9.220;2023-05-25T01:06:20;5.47;;;3.10;;
17259;SDS011;8746;49.230;9.220;2023-05-25T01:08:51;8.93;;;3.33;;
17259;SDS011;8746;49.230;9.220;2023-05-25T01:11:27;7.43;;;3.07;;
17259;SDS011;8746;49.230;9.220;2023-05-25T01:13:56;4.07;;;2.73;;
17259;SDS011;8746;49.230;9.220;2023-05-25T01:16:23;8.40;;;3.33;;
17259;SDS011;8746;49.230;9.220;2023-05-25T01:18:50;6.43;;;2.70;;
17259;SDS011;8746;49.230;9.220;2023-05-25T01:24:11;6.77;;;3.67;;
17259;SDS011;8746;49.230;9.220;2023-05-25T01:26:47;7.40;;;2.80;;
17259;SDS011;8746;49.230;9.220;2023-05-25T01:29:19;6.23;;;3.00;;
17259;SDS011;8746;49.230;9.220;2023-05-25T01:31:47;7.03;;;3.37;;
17259;SDS011;8746;49.230;9.220;2023-05-25T01:34:14;7.80;;;2.97;;
17259;SDS011;8746;49.230;9.220;2023-05-25T01:36:40;6.23;;;3.03;;
17259;SDS011;8746;49.230;9.220;2023-05-25T01:39:06;5.33;;;3.10;;
17259;SDS011;8746;49.230;9.220;2023-05-25T01:41:34;7.20;;;3.10;;
17259;SDS011;8746;49.230;9.220;2023-05-25T01:44:00;6.27;;;2.57;;
17259;SDS011;8746;49.230;9.220;2023-05-25T01:46:38;7.03;;;2.80;;
17259;SDS011;8746;49.230;9.220;2023-05-25T01:54:12;8.10;;;3.13;;
17259;SDS011;8746;49.230;9.220;2023-05-25T01:56:44;9.73;;;3.17;;
17259;SDS011;8746;49.230;9.220;2023-05-25T01:59:11;8.37;;;3.40;;
17259;SDS011;8746;49.230;9.220;2023-05-25T02:01:39;7.53;;;2.80;;
17259;SDS011;8746;49.230;9.220;2023-05-25T02:04:06;7.83;;;2.90;;
17259;SDS011;8746;49.230;9.220;2023-05-25T02:06:32;7.70;;;3.27;;
17259;SDS011;8746;49.230;9.220;2023-05-25T02:09:00;6.50;;;3.33;;
17259;SDS011;8746;49.230;9.220;2023-05-25T02:11:25;7.97;;;3.23;;
17259;SDS011;8746;49.230;9.220;2023-05-25T02:13:51;6.10;;;3.17;;
17259;SDS011;8746;49.230;9.220;2023-05-25T02:16:17;7.50;;;3.70;;
17259;SDS011;8746;49.230;9.220;2023-05-25T02:18:42;7.37;;;3.30;;
17259;SDS011;8746;49.230;9.220;2023-05-25T02:21:08;6.93;;;3.23;;
17259;SDS011;8746;49.230;9.220;2023-05-25T02:23:34;8.77;;;3.40;;
17259;SDS011;8746;49.230;9.220;2023-05-25T02:25:59;4.37;;;2.80;;
17259;SDS011;8746;49.230;9.220;2023-05-25T02:28:25;9.23;;;3.27;;
17259;SDS011;8746;49.230;9.220;2023-05-25T02:30:50;7.07;;;3.10;;
17259;SDS011;8746;49.230;9.220;2023-05-25T02:33:16;9.30;;;3.20;;
17259;SDS011;8746;49.230;9.220;2023-05-25T02:35:42;7.67;;;3.20;;
17259;SDS011;8746;49.230;9.220;2023-05-25T02:38:08;9.17;;;3.27;;
17259;SDS011;8746;49.230;9.220;2023-05-25T02:40:33;7.57;;;3.50;;
17259;SDS011;8746;49.230;9.220;2023-05-25T02:42:59;7.73;;;3.47;;
17259;SDS011;8746;49.230;9.220;2023-05-25T02:45:24;7.50;;;3.03;;
17259;SDS011;8746;49.230;9.220;2023-05-25T02:47:50;7.13;;;3.60;;
17259;SDS011;8746;49.230;9.220;2023-05-25T02:50:15;7.40;;;3.37;;
17259;SDS011;8746;49.230;9.220;2023-05-25T02:52:40;8.77;;;3.50;;
17259;SDS011;8746;49.230;9.220;2023-05-25T02:55:06;7.50;;;3.20;;
17259;SDS011;8746;49.230;9.220;2023-05-25T02:57:34;9.73;;;3.47;;
17259;SDS011;8746;49.230;9.220;2023-05-25T03:00:01;9.23;;;3.47;;
17259;SDS011;8746;49.230;9.220;2023-05-25T03:02:26;9.23;;;3.83;;
17259;SDS011;8746;49.230;9.220;2023-05-25T03:04:52;8.93;;;3.80;;
17259;SDS011;8746;49.230;9.220;2023-05-25T03:07:18;5.97;;;3.30;;
17259;SDS011;8746;49.230;9.220;2023-05-25T03:09:45;7.17;;;3.27;;
17259;SDS011;8746;49.230;9.220;2023-05-25T03:12:10;7.47;;;3.43;;
17259;SDS011;8746;49.230;9.220;2023-05-25T03:14:35;9.03;;;3.17;;
17259;SDS011;8746;49.230;9.220;2023-05-25T03:17:01;9.00;;;3.47;;
17259;SDS011;8746;49.230;9.220;2023-05-25T03:19:26;7.87;;;3.60;;
17259;SDS011;8746;49.230;9.220;2023-05-25T03:21:51;8.77;;;3.73;;
17259;SDS011;8746;49.230;9.220;2023-05-25T03:24:16;7.97;;;3.53;;
17259;SDS011;8746;49.230;9.220;2023-05-25T03:26:42;7.37;;;3.67;;
17259;SDS011;8746;49.230;9.220;2023-05-25T03:29:07;9.37;;;4.00;;
17259;SDS011;8746;49.230;9.220;2023-05-25T03:31:33;11.23;;;3.73;;
17259;SDS011;8746;49.230;9.220;2023-05-25T03:33:58;9.17;;;3.73;;
17259;SDS011;8746;49.230;9.220;2023-05-25T03:36:23;10.57;;;4.00;;
17259;SDS011;8746;49.230;9.220;2023-05-25T03:38:51;6.97;;;3.50;;
17259;SDS011;8746;49.230;9.220;2023-05-25T03:41:17;9.17;;;3.93;;
17259;SDS011;8746;49.230;9.220;2023-05-25T03:43:42;7.47;;;3.40;;
17259;SDS011;8746;49.230;9.220;2023-05-25T03:46:07;7.07;;;3.60;;
17259;SDS011;8746;49.230;9.220;2023-05-25T03:48:35;11.13;;;3.70;;
17259;SDS011;8746;49.230;9.220;2023-05-25T03:51:00;8.10;;;4.07;;
17259;SDS011;8746;49.230;9.220;2023-05-25T03:53:26;9.10;;;3.63;;
17259;SDS011;8746;49.230;9.220;2023-05-25T03:55:51;9.80;;;3.67;;
17259;SDS011;8746;49.230;9.220;2023-05-25T03:58:16;9.60;;;3.90;;
17259;SDS011;8746;49.230;9.220;2023-05-25T04:00:42;9.47;;;3.67;;
17259;SDS011;8746;49.230;9.220;2023-05-25T04:03:07;8.10;;;3.57;;
17259;SDS011;8746;49.230;9.220;2023-05-25T04:05:34;10.23;;;3.70;;
17259;SDS011;8746;49.230;9.220;2023-05-25T04:08:00;7.50;;;3.20;;
17259;SDS011;8746;49.230;9.220;2023-05-25T04:10:27;11.23;;;3.70;;
17259;SDS011;8746;49.230;9.220;2023-05-25T04:12:52;7.13;;;3.33;;
17259;SDS011;8746;49.230;9.220;2023-05-25T04:15:20;10.57;;;3.73;;
17259;SDS011;8746;49.230;9.220;2023-05-25T04:17:46;10.70;;;3.53;;
17259;SDS011;8746;49.230;9.220;2023-05-25T04:20:11;9.93;;;3.90;;
17259;SDS011;8746;49.230;9.220;2023-05-25T04:22:37;7.70;;;3.60;;
17259;SDS011;8746;49.230;9.220;2023-05-25T04:25:05;7.87;;;3.53;;
17259;SDS011;8746;49.230;9.220;2023-05-25T04:27:31;13.87;;;3.73;;
17259;SDS011;8746;49.230;9.220;2023-05-25T04:29:57;7.77;;;3.20;;
17259;SDS011;8746;49.230;9.220;2023-05-25T04:32:22;5.17;;;3.20;;
17259;SDS011;8746;49.230;9.220;2023-05-25T04:34:49;7.90;;;3.53;;
17259;SDS011;8746;49.230;9.220;2023-05-25T04:37:14;9.37;;;3.90;;
17259;SDS011;8746;49.230;9.220;2023-05-25T04:39:41;10.30;;;3.87;;
17259;SDS011;8746;49.230;9.220;2023-05-25T04:42:06;6.13;;;3.43;;
17259;SDS011;8746;49.230;9.220;2023-05-25T04:44:32;7.50;;;3.70;;
17259;SDS011;8746;49.230;9.220;2023-05-25T04:46:57;6.67;;;4.03;;
17259;SDS011;8746;49.230;9.220;2023-05-25T04:49:23;9.87;;;3.43;;
17259;SDS011;8746;49.230;9.220;2023-05-25T04:51:50;8.03;;;3.53;;
17259;SDS011;8746;49.230;9.220;2023-05-25T04:54:16;8.90;;;3.90;;
17259;SDS011;8746;49.230;9.220;2023-05-25T04:56:41;9.40;;;3.73;;
17259;SDS011;8746;49.230;9.220;2023-05-25T04:59:07;10.83;;;3.73;;
17259;SDS011;8746;49.230;9.220;2023-05-25T05:01:32;6.57;;;3.33;;
17259;SDS011;8746;49.230;9.220;2023-05-25T05:03:58;11.37;;;3.50;;
17259;SDS011;8746;49.230;9.220;2023-05-25T05:06:24;5.60;;;3.60;;
17259;SDS011;8746;49.230;9.220;2023-05-25T05:08:49;10.67;;;4.30;;
17259;SDS011;8746;49.230;9.220;2023-05-25T05:11:15;9.40;;;3.67;;
17259;SDS011;8746;49.230;9.220;2023-05-25T05:13:41;9.63;;;3.53;;
17259;SDS011;8746;49.230;9.220;2023-05-25T05:16:06;10.23;;;3.90;;
17259;SDS011;8746;49.230;9.220;2023-05-25T05:18:31;10.37;;;4.00;;
17259;SDS011;8746;49.230;9.220;2023-05-25T05:20:57;6.87;;;3.73;;
17259;SDS011;8746;49.230;9.220;2023-05-25T05:23:22;8.10;;;3.90;;
17259;SDS011;8746;49.230;9.220;2023-05-25T05:25:47;9.17;;;3.70;;
17259;SDS011;8746;49.230;9.220;2023-05-25T05:28:13;9.03;;;3.70;;
17259;SDS011;8746;49.230;9.220;2023-05-25T05:30:38;8.00;;;3.47;;
17259;SDS011;8746;49.230;9.220;2023-05-25T05:33:03;10.13;;;3.20;;
17259;SDS011;8746;49.230;9.220;2023-05-25T05:35:30;9.50;;;3.80;;
17259;SDS011;8746;49.230;9.220;2023-05-25T05:37:55;5.87;;;3.30;;
17259;SDS011;8746;49.230;9.220;2023-05-25T05:40:20;9.10;;;3.50;;
17259;SDS011;8746;49.230;9.220;2023-05-25T05:42:46;7.33;;;3.63;;
17259;SDS011;8746;49.230;9.220;2023-05-25T05:45:11;7.10;;;3.40;;
17259;SDS011;8746;49.230;9.220;2023-05-25T05:47:37;7.17;;;3.67;;
17259;SDS011;8746;49.230;9.220;2023-05-25T05:50:02;6.73;;;3.43;;
17259;SDS011;8746;49.230;9.220;2023-05-25T05:52:28;8.17;;;3.30;;
17259;SDS011;8746;49.230;9.220;2023-05-25T05:54:53;9.33;;;3.57;;
17259;SDS011;8746;49.230;9.220;2023-05-25T05:57:19;6.53;;;3.60;;
17259;SDS011;8746;49.230;9.220;2023-05-25T05:59:44;9.33;;;3.73;;
17259;SDS011;8746;49.230;9.220;2023-05-25T06:02:10;7.57;;;3.57;;
17259;SDS011;8746;49.230;9.220;2023-05-25T06:04:35;5.20;;;3.20;;
17259;SDS011;8746;49.230;9.220;2023-05-25T06:07:02;7.90;;;3.33;;
17259;SDS011;8746;49.230;9.220;2023-05-25T06:09:27;5.77;;;3.30;;
17259;SDS011;8746;49.230;9.220;2023-05-25T06:11:53;8.17;;;3.70;;
17259;SDS011;8746;49.230;9.220;2023-05-25T06:14:18;6.30;;;3.30;;
17259;SDS011;8746;49.230;9.220;2023-05-25T06:16:43;7.40;;;3.60;;
17259;SDS011;8746;49.230;9.220;2023-05-25T06:19:09;9.73;;;3.60;;
17259;SDS011;8746;49.230;9.220;2023-05-25T06:21:34;7.83;;;3.60;;
17259;SDS011;8746;49.230;9.220;2023-05-25T06:24:01;4.93;;;3.30;;
17259;SDS011;8746;49.230;9.220;2023-05-25T06:26:26;8.17;;;3.87;;
17259;SDS011;8746;49.230;9.220;2023-05-25T06:28:52;7.47;;;3.93;;
17259;SDS011;8746;49.230;9.220;2023-05-25T06:31:17;11.13;;;3.73;;
17259;SDS011;8746;49.230;9.220;2023-05-25T06:33:43;7.17;;;3.17;;
17259;SDS011;8746;49.230;9.220;2023-05-25T06:36:08;7.00;;;3.87;;
17259;SDS011;8746;49.230;9.220;2023-05-25T06:38:34;8.30;;;3.60;;
17259;SDS011;8746;49.230;9.220;2023-05-25T06:41:00;7.03;;;3.40;;
17259;SDS011;8746;49.230;9.220;2023-05-25T06:43:27;5.60;;;3.50;;
17259;SDS011;8746;49.230;9.220;2023-05-25T06:45:53;6.73;;;3.50;;
17259;SDS011;8746;49.230;9.220;2023-05-25T06:48:18;8.30;;;3.37;;
17259;SDS011;8746;49.230;9.220;2023-05-25T06:50:44;6.70;;;3.70;;
17259;SDS011;8746;49.230;9.220;2023-05-25T06:53:10;9.33;;;3.73;;
17259;SDS011;8746;49.230;9.220;2023-05-25T06:55:36;6.23;;;3.60;;
17259;SDS011;8746;49.230;9.220;2023-05-25T06:58:01;7.70;;;3.60;;
17259;SDS011;8746;49.230;9.220;2023-05-25T07:00:26;7.90;;;3.40;;
17259;SDS011;8746;49.230;9.220;2023-05-25T07:02:52;6.57;;;3.60;;
17259;SDS011;8746;49.230;9.220;2023-05-25T07:05:17;6.60;;;3.70;;
17259;SDS011;8746;49.230;9.220;2023-05-25T07:07:42;6.13;;;3.60;;
17259;SDS011;8746;49.230;9.220;2023-05-25T07:10:08;6.23;;;3.67;;
17259;SDS011;8746;49.230;9.220;2023-05-25T07:12:33;5.87;;;3.93;;
17259;SDS011;8746;49.230;9.220;2023-05-25T07:14:59;9.83;;;3.70;;
17259;SDS011;8746;49.230;9.220;2023-05-25T07:17:24;7.23;;;4.00;;
17259;SDS011;8746;49.230;9.220;2023-05-25T07:19:50;10.00;;;3.70;;
17259;SDS011;8746;49.230;9.220;2023-05-25T07:22:15;8.47;;;4.40;;
17259;SDS011;8746;49.230;9.220;2023-05-25T07:24:43;9.00;;;4.07;;
17259;SDS011;8746;49.230;9.220;2023-05-25T07:27:11;9.20;;;3.83;;
17259;SDS011;8746;49.230;9.220;2023-05-25T07:29:40;9.70;;;4.17;;
17259;SDS011;8746;49.230;9.220;2023-05-25T07:32:06;7.07;;;4.17;;
17259;SDS011;8746;49.230;9.220;2023-05-25T07:34:32;8.20;;;3.77;;
17259;SDS011;8746;49.230;9.220;2023-05-25T07:36:58;10.50;;;4.40;;
17259;SDS011;8746;49.230;9.220;2023-05-25T07:39:23;7.57;;;4.47;;
17259;SDS011;8746;49.230;9.220;2023-05-25T07:41:49;7.83;;;3.60;;
17259;SDS011;8746;49.230;9.220;2023-05-25T07:44:14;9.50;;;3.50;;
17259;SDS011;8746;49.230;9.220;2023-05-25T07:46:39;6.23;;;3.93;;
17259;SDS011;8746;49.230;9.220;2023-05-25T07:49:05;7.47;;;4.37;;
17259;SDS011;8746;49.230;9.220;2023-05-25T07:51:35;8.77;;;3.90;;
17259;SDS011;8746;49.230;9.220;2023-05-25T07:54:01;8.10;;;3.60;;
17259;SDS011;8746;49.230;9.220;2023-05-25T07:56:26;9.30;;;3.87;;
17259;SDS011;8746;49.230;9.220;2023-05-25T07:58:52;10.27;;;3.90;;
17259;SDS011;8746;49.230;9.220;2023-05-25T08:01:18;7.10;;;3.63;;
17259;SDS011;8746;49.230;9.220;2023-05-25T08:03:43;7.73;;;3.83;;
17259;SDS011;8746;49.230;9.220;2023-05-25T08:06:09;8.63;;;3.83;;
17259;SDS011;8746;49.230;9.220;2023-05-25T08:08:34;7.40;;;4.00;;
17259;SDS011;8746;49.230;9.220;2023-05-25T08:11:00;7.40;;;3.57;;
17259;SDS011;8746;49.230;9.220;2023-05-25T08:13:26;7.53;;;3.70;;
17259;SDS011;8746;49.230;9.220;2023-05-25T08:15:51;6.97;;;3.30;;
17259;SDS011;8746;49.230;9.220;2023-05-25T08:18:17;6.30;;;4.03;;
17259;SDS011;8746;49.230;9.220;2023-05-25T08:20:43;6.57;;;4.10;;
17259;SDS011;8746;49.230;9.220;2023-05-25T08:23:08;7.47;;;3.93;;
17259;SDS011;8746;49.230;9.220;2023-05-25T08:25:34;9.60;;;3.83;;
17259;SDS011;8746;49.230;9.220;2023-05-25T08:27:59;9.03;;;4.07;;
17259;SDS011;8746;49.230;9.220;2023-05-25T08:30:24;5.33;;;3.60;;
17259;SDS011;8746;49.230;9.220;2023-05-25T08:32:50;6.50;;;3.53;;
17259;SDS011;8746;49.230;9.220;2023-05-25T08:35:15;6.77;;;3.60;;
17259;SDS011;8746;49.230;9.220;2023-05-25T08:37:41;14.47;;;4.07;;
17259;SDS011;8746;49.230;9.220;2023-05-25T08:40:07;10.53;;;3.90;;
17259;SDS011;8746;49.230;9.220;2023-05-25T08:42:41;8.63;;;3.83;;
17259;SDS011;8746;49.230;9.220;2023-05-25T08:45:09;7.13;;;3.87;;
17259;SDS011;8746;49.230;9.220;2023-05-25T08:47:35;6.40;;;3.80;;
17259;SDS011;8746;49.230;9.220;2023-05-25T08:50:07;8.80;;;3.70;;
17259;SDS011;8746;49.230;9.220;2023-05-25T08:52:33;9.13;;;4.00;;
17259;SDS011;8746;49.230;9.220;2023-05-25T08:55:01;9.20;;;4.10;;
17259;SDS011;8746;49.230;9.220;2023-05-25T08:57:30;7.67;;;3.63;;
17259;SDS011;8746;49.230;9.220;2023-05-25T09:00:04;7.03;;;4.10;;
17259;SDS011;8746;49.230;9.220;2023-05-25T09:02:37;7.33;;;3.87;;
17259;SDS011;8746;49.230;9.220;2023-05-25T09:05:07;5.03;;;3.70;;
17259;SDS011;8746;49.230;9.220;2023-05-25T09:07:33;7.40;;;3.60;;
17259;SDS011;8746;49.230;9.220;2023-05-25T09:09:59;9.53;;;3.80;;
17259;SDS011;8746;49.230;9.220;2023-05-25T09:12:26;6.77;;;3.57;;
17259;SDS011;8746;49.230;9.220;2023-05-25T09:14:54;7.50;;;4.13;;
17259;SDS011;8746;49.230;9.220;2023-05-25T09:17:19;6.90;;;3.80;;
17259;SDS011;8746;49.230;9.220;2023-05-25T09:19:45;7.47;;;3.90;;
17259;SDS011;8746;49.230;9.220;2023-05-25T09:22:11;8.23;;;4.40;;
17259;SDS011;8746;49.230;9.220;2023-05-25T09:24:37;7.63;;;4.13;;
17259;SDS011;8746;49.230;9.220;2023-05-25T09:27:05;8.67;;;4.30;;
17259;SDS011;8746;49.230;9.220;2023-05-25T09:29:30;6.57;;;4.07;;
17259;SDS011;8746;49.230;9.220;2023-05-25T09:31:57;6.67;;;3.77;;
17259;SDS011;8746;49.230;9.220;2023-05-25T09:34:28;7.77;;;3.87;;
17259;SDS011;8746;49.230;9.220;2023-05-25T09:36:57;8.20;;;3.90;;
17259;SDS011;8746;49.230;9.220;2023-05-25T09:39:24;7.32;;;3.90;;
17259;SDS011;8746;49.230;9.220;2023-05-25T09:41:49;6.25;;;4.28;;
17259;SDS011;8746;49.230;9.220;2023-05-25T09:44:15;6.32;;;3.92;;
17259;SDS011;8746;49.230;9.220;2023-05-25T09:46:40;8.88;;;4.25;;
17259;SDS011;8746;49.230;9.220;2023-05-25T09:49:07;9.65;;;3.80;;
17259;SDS011;8746;49.230;9.220;2023-05-25T09:51:33;9.32;;;3.65;;
17259;SDS011;8746;49.230;9.220;2023-05-25T09:54:00;8.68;;;3.72;;
17259;SDS011;8746;49.230;9.220;2023-05-25T09:56:30;9.05;;;3.80;;
17259;SDS011;8746;49.230;9.220;2023-05-25T09:58:57;6.35;;;3.80;;
17259;SDS011;8746;49.230;9.220;2023-05-25T10:01:23;10.10;;;3.97;;
17259;SDS011;8746;49.230;9.220;2023-05-25T10:03:49;7.28;;;3.65;;
17259;SDS011;8746;49.230;9.220;2023-05-25T10:06:20;8.25;;;3.90;;
17259;SDS011;8746;49.230;9.220;2023-05-25T10:08:47;6.03;;;3.78;;
17259;SDS011;8746;49.230;9.220;2023-05-25T10:11:14;7.65;;;3.60;;
17259;SDS011;8746;49.230;9.220;2023-05-25T10:13:41;8.30;;;3.53;;
17259;SDS011;8746;49.230;9.220;2023-05-25T10:16:08;7.72;;;3.60;;
17259;SDS011;8746;49.230;9.220;2023-05-25T10:18:42;6.40;;;3.90;;
17259;SDS011;8746;49.230;9.220;2023-05-25T10:21:18;5.13;;;3.83;;
17259;SDS011;8746;49.230;9.220;2023-05-25T10:23:45;5.03;;;3.33;;
17259;SDS011;8746;49.230;9.220;2023-05-25T10:26:16;7.85;;;4.03;;
17259;SDS011;8746;49.230;9.220;2023-05-25T10:28:44;5.60;;;3.53;;
17259;SDS011;8746;49.230;9.220;2023-05-25T10:31:12;6.07;;;4.03;;
17259;SDS011;8746;49.230;9.220;2023-05-25T10:33:40;5.45;;;3.70;;
17259;SDS011;8746;49.230;9.220;2023-05-25T10:36:06;4.70;;;3.88;;
17259;SDS011;8746;49.230;9.220;2023-05-25T10:38:33;8.38;;;3.50;;
17259;SDS011;8746;49.230;9.220;2023-05-25T10:40:58;7.07;;;3.70;;
17259;SDS011;8746;49.230;9.220;2023-05-25T10:43:25;6.43;;;3.85;;
17259;SDS011;8746;49.230;9.220;2023-05-25T10:45:51;7.18;;;4.05;;
17259;SDS011;8746;49.230;9.220;2023-05-25T10:48:17;4.32;;;2.97;;
17259;SDS011;8746;49.230;9.220;2023-05-25T10:50:43;7.95;;;3.83;;
17259;SDS011;8746;49.230;9.220;2023-05-25T10:53:14;5.30;;;3.75;;
17259;SDS011;8746;49.230;9.220;2023-05-25T10:56:02;4.72;;;3.60;;
17259;SDS011;8746;49.230;9.220;2023-05-25T10:58:30;8.05;;;3.88;;
17259;SDS011;8746;49.230;9.220;2023-05-25T11:06:16;6.75;;;3.50;;
17259;SDS011;8746;49.230;9.220;2023-05-25T11:08:55;6.60;;;4.00;;
17259;SDS011;8746;49.230;9.220;2023-05-25T11:14:19;4.97;;;3.88;;
17259;SDS011;8746;49.230;9.220;2023-05-25T11:24:47;6.78;;;3.42;;
17259;SDS011;8746;49.230;9.220;2023-05-25T11:27:14;7.35;;;3.35;;
17259;SDS011;8746;49.230;9.220;2023-05-25T11:29:39;5.65;;;4.00;;
17259;SDS011;8746;49.230;9.220;2023-05-25T11:32:12;6.20;;;3.33;;
17259;SDS011;8746;49.230;9.220;2023-05-25T11:34:38;7.78;;;3.90;;
17259;SDS011;8746;49.230;9.220;2023-05-25T11:37:05;5.85;;;3.28;;
17259;SDS011;8746;49.230;9.220;2023-05-25T11:39:31;5.60;;;3.97;;
17259;SDS011;8746;49.230;9.220;2023-05-25T11:42:01;6.65;;;3.45;;
17259;SDS011;8746;49.230;9.220;2023-05-25T11:44:30;5.80;;;3.63;;
17259;SDS011;8746;49.230;9.220;2023-05-25T11:47:00;7.18;;;3.30;;
17259;SDS011;8746;49.230;9.220;2023-05-25T11:49:32;5.07;;;3.28;;
17259;SDS011;8746;49.230;9.220;2023-05-25T11:52:05;5.57;;;3.25;;
17259;SDS011;8746;49.230;9.220;2023-05-25T11:54:31;4.85;;;3.45;;
17259;SDS011;8746;49.230;9.220;2023-05-25T11:56:57;8.32;;;3.10;;
17259;SDS011;8746;49.230;9.220;2023-05-25T11:59:27;7.75;;;3.83;;
17259;SDS011;8746;49.230;9.220;2023-05-25T12:01:56;6.03;;;3.42;;
17259;SDS011;8746;49.230;9.220;2023-05-25T12:04:23;4.57;;;3.45;;
17259;SDS011;8746;49.230;9.220;2023-05-25T12:06:48;4.95;;;3.45;;
17259;SDS011;8746;49.230;9.220;2023-05-25T12:09:17;4.43;;;3.33;;
17259;SDS011;8746;49.230;9.220;2023-05-25T12:11:45;6.22;;;3.58;;
17259;SDS011;8746;49.230;9.220;2023-05-25T12:14:10;5.28;;;3.33;;
17259;SDS011;8746;49.230;9.220;2023-05-25T12:16:36;6.32;;;3.40;;
17259;SDS011;8746;49.230;9.220;2023-05-25T12:19:08;5.13;;;3.72;;
17259;SDS011;8746;49.230;9.220;2023-05-25T12:21:35;9.77;;;3.47;;
17259;SDS011;8746;49.230;9.220;2023-05-25T12:24:02;4.43;;;3.20;;
17259;SDS011;8746;49.230;9.220;2023-05-25T12:26:30;6.18;;;3.63;;
17259;SDS011;8746;49.230;9.220;2023-05-25T12:31:25;4.35;;;3.17;;
17259;SDS011;8746;49.230;9.220;2023-05-25T12:34:08;5.78;;;3.50;;
17259;SDS011;8746;49.230;9.220;2023-05-25T12:36:46;5.65;;;3.55;;
17259;SDS011;8746;49.230;9.220;2023-05-25T12:39:13;4.18;;;3.08;;
17259;SDS011;8746;49.230;9.220;2023-05-25T12:41:50;5.95;;;3.50;;
17259;SDS011;8746;49.230;9.220;2023-05-25T12:44:25;5.95;;;3.15;;
17259;SDS011;8746;49.230;9.220;2023-05-25T12:46:53;5.47;;;3.05;;
17259;SDS011;8746;49.230;9.220;2023-05-25T12:51:49;4.38;;;3.10;;
17259;SDS011;8746;49.230;9.220;2023-05-25T12:54:14;4.85;;;3.38;;
17259;SDS011;8746;49.230;9.220;2023-05-25T12:56:57;4.13;;;2.83;;
17259;SDS011;8746;49.230;9.220;2023-05-25T12:59:22;4.43;;;3.30;;
17259;SDS011;8746;49.230;9.220;2023-05-25T13:01:47;3.15;;;2.80;;
17259;SDS011;8746;49.230;9.220;2023-05-25T13:04:12;4.90;;;3.00;;
17259;SDS011;8746;49.230;9.220;2023-05-25T13:06:38;5.05;;;3.13;;
17259;SDS011;8746;49.230;9.220;2023-05-25T13:09:03;5.05;;;3.20;;
17259;SDS011;8746;49.230;9.220;2023-05-25T13:11:29;6.22;;;3.20;;
17259;SDS011;8746;49.230;9.220;2023-05-25T13:13:54;3.55;;;3.15;;
17259;SDS011;8746;49.230;9.220;2023-05-25T13:16:20;4.28;;;3.20;;
17259;SDS011;8746;49.230;9.220;2023-05-25T13:18:46;4.28;;;3.17;;
17259;SDS011;8746;49.230;9.220;2023-05-25T13:21:11;3.88;;;3.45;;
17259;SDS011;8746;49.230;9.220;2023-05-25T13:23:36;5.15;;;2.90;;
17259;SDS011;8746;49.230;9.220;2023-05-25T13:26:01;7.40;;;3.13;;
17259;SDS011;8746;49.230;9.220;2023-05-25T13:28:27;5.13;;;3.58;;
17259;SDS011;8746;49.230;9.220;2023-05-25T13:30:52;5.10;;;3.13;;
17259;SDS011;8746;49.230;9.220;2023-05-25T13:33:18;5.50;;;2.90;;
17259;SDS011;8746;49.230;9.220;2023-05-25T13:35:43;5.18;;;3.55;;
17259;SDS011;8746;49.230;9.220;2023-05-25T13:38:31;3.25;;;2.95;;
17259;SDS011;8746;49.230;9.220;2023-05-25T13:40:58;6.70;;;3.28;;
17259;SDS011;8746;49.230;9.220;2023-05-25T13:43:23;3.35;;;2.97;;
17259;SDS011;8746;49.230;9.220;2023-05-25T13:45:49;5.75;;;3.40;;
17259;SDS011;8746;49.230;9.220;2023-05-25T13:48:14;6.18;;;3.22;;
17259;SDS011;8746;49.230;9.220;2023-05-25T13:50:39;3.67;;;3.00;;
17259;SDS011;8746;49.230;9.220;2023-05-25T13:53:06;4.20;;;3.25;;
17259;SDS011;8746;49.230;9.220;2023-05-25T13:55:31;3.50;;;3.00;;
17259;SDS011;8746;49.230;9.220;2023-05-25T13:57:57;4.40;;;3.15;;
17259;SDS011;8746;49.230;9.220;2023-05-25T14:00:22;3.50;;;2.90;;
17259;SDS011;8746;49.230;9.220;2023-05-25T14:02:47;4.90;;;3.03;;
17259;SDS011;8746;49.230;9.220;2023-05-25T14:05:13;4.18;;;2.95;;
17259;SDS011;8746;49.230;9.220;2023-05-25T14:07:38;4.65;;;3.13;;
17259;SDS011;8746;49.230;9.220;2023-05-25T14:10:05;5.80;;;2.88;;
17259;SDS011;8746;49.230;9.220;2023-05-25T14:12:31;3.80;;;2.83;;
17259;SDS011;8746;49.230;9.220;2023-05-25T14:14:56;4.25;;;3.10;;
17259;SDS011;8746;49.230;9.220;2023-05-25T14:17:22;3.63;;;2.85;;
17259;SDS011;8746;49.230;9.220;2023-05-25T14:19:48;4.32;;;3.30;;
17259;SDS011;8746;49.230;9.220;2023-05-25T14:22:13;4.30;;;3.00;;
17259;SDS011;8746;49.230;9.220;2023-05-25T14:24:39;3.90;;;2.80;;
17259;SDS011;8746;49.230;9.220;2023-05-25T14:27:04;5.05;;;3.35;;
17259;SDS011;8746;49.230;9.220;2023-05-25T14:29:31;5.18;;;3.25;;
17259;SDS011;8746;49.230;9.220;2023-05-25T14:31:56;4.03;;;2.75;;
17259;SDS011;8746;49.230;9.220;2023-05-25T14:34:21;4.63;;;3.08;;
17259;SDS011;8746;49.230;9.220;2023-05-25T14:36:47;3.60;;;3.30;;
17259;SDS011;8746;49.230;9.220;2023-05-25T14:39:13;4.32;;;2.92;;
17259;SDS011;8746;49.230;9.220;2023-05-25T14:41:38;5.28;;;3.33;;
17259;SDS011;8746;49.230;9.220;2023-05-25T14:44:03;3.00;;;2.70;;
17259;SDS011;8746;49.230;9.220;2023-05-25T14:46:31;5.22;;;2.70;;
17259;SDS011;8746;49.230;9.220;2023-05-25T14:48:57;3.90;;;2.85;;
17259;SDS011;8746;49.230;9.220;2023-05-25T14:51:23;4.18;;;3.00;;
17259;SDS011;8746;49.230;9.220;2023-05-25T14:53:49;4.00;;;2.97;;
17259;SDS011;8746;49.230;9.220;2023-05-25T14:56:17;8.63;;;3.15;;
17259;SDS011;8746;49.230;9.220;2023-05-25T14:58:43;4.32;;;2.83;;
17259;SDS011;8746;49.230;9.220;2023-05-25T15:01:09;2.80;;;2.60;;
17259;SDS011;8746;49.230;9.220;2023-05-25T15:03:34;3.70;;;3.10;;
17259;SDS011;8746;49.230;9.220;2023-05-25T15:05:59;4.50;;;2.58;;
17259;SDS011;8746;49.230;9.220;2023-05-25T15:08:25;3.70;;;2.50;;
17259;SDS011;8746;49.230;9.220;2023-05-25T15:10:50;4.10;;;2.72;;
17259;SDS011;8746;49.230;9.220;2023-05-25T15:13:16;3.22;;;2.90;;
17259;SDS011;8746;49.230;9.220;2023-05-25T15:15:42;3.60;;;3.08;;
17259;SDS011;8746;49.230;9.220;2023-05-25T15:18:07;3.80;;;3.08;;
17259;SDS011;8746;49.230;9.220;2023-05-25T15:20:34;3.15;;;2.80;;
17259;SDS011;8746;49.230;9.220;2023-05-25T15:22:59;3.05;;;2.72;;
17259;SDS011;8746;49.230;9.220;2023-05-25T15:25:25;4.03;;;2.60;;